Time;durP1;ratioP1;P1;durP2;ratioP2;P2;SDS_P1;SDS_P2;PMS_P1;PMS_P2;Temp;Humidity;BMP_temperature;BMP_pressure;BME280_temperature;BME280_humidity;BME280_pressure;Samples;Min_cycle;Max_cycle;Signal;HPM_P1;HPM_P2
2021/12/01 00:00:33;;;;;;;17.73;15.93;;;10.40;98.30;;;;;;6220092;23;20000;-87
2021/12/01 00:03:47;;;;;;;;;;;;;;;;;;;;;
2021/12/01 00:06:11;;;;;;;18.05;14.38;;;10.30;98.30;;;;;;6242291;23;20000;-88
2021/12/01 00:08:58;;;;;;;14.85;13.35;;;10.40;98.40;;;;;;6172116;23;20016;-88
2021/12/01 00:11:51;;;;;;;14.88;13.13;;;10.40;98.40;;;;;;6221275;23;20000;-88
2021/12/01 00:14:34;;;;;;;;;;;;;;;;;;;;;
2021/12/01 00:17:13;;;;;;;13.30;11.80;;;10.40;98.40;;;;;;6248522;23;20079;-88
2021/12/01 00:19:52;;;;;;;;;;;;;;;;;;;;;
2021/12/01 00:22:38;;;;;;;10.90;9.80;;;10.40;98.40;;;;;;6248854;23;20091;-87
2021/12/01 00:25:18;;;;;;;;;;;;;;;;;;;;;
2021/12/01 00:27:58;;;;;;;;;;;;;;;;;;;;;
2021/12/01 00:31:02;;;;;;;8.73;7.90;;;10.40;98.50;;;;;;6251847;23;20050;-88
2021/12/01 00:36:56;;;;;;;6.85;6.25;;;10.50;98.50;;;;;;6252366;23;20079;-88
2021/12/01 00:39:48;;;;;;;;;;;;;;;;;;;;;
2021/12/01 00:43:04;;;;;;;5.93;5.43;;;10.50;98.60;;;;;;6252817;23;20039;-87
2021/12/01 00:46:10;;;;;;;;;;;;;;;;;;;;;
2021/12/01 00:49:14;;;;;;;;;;;;;;;;;;;;;
2021/12/01 00:51:58;;;;;;;5.75;4.22;;;10.50;98.50;;;;;;6250521;23;20005;-87
2021/12/01 00:54:40;;;;;;;4.22;3.83;;;10.50;98.60;;;;;;6220269;23;20038;-88
2021/12/01 00:57:13;;;;;;;4.78;4.20;;;10.60;98.60;;;;;;6210824;23;20028;-88
2021/12/01 00:59:45;;;;;;;4.80;4.40;;;10.60;98.60;;;;;;6223177;23;20088;-88
2021/12/01 01:02:11;;;;;;;3.80;3.50;;;10.50;98.60;;;;;;6221740;23;20001;-87
2021/12/01 01:04:42;;;;;;;4.80;4.40;;;10.50;98.60;;;;;;6221524;23;20010;-88
2021/12/01 01:07:23;;;;;;;4.40;4.00;;;10.50;98.60;;;;;;6221420;23;20034;-88
2021/12/01 01:09:55;;;;;;;;;;;10.50;98.60;;;;;;6222111;23;20001;-87
2021/12/01 01:18:17;;;;;;;5.10;4.53;;;10.50;98.60;;;;;;6248494;23;20397;-87
2021/12/01 01:21:11;;;;;;;4.38;3.92;;;10.50;98.60;;;;;;6200173;23;20011;-87
2021/12/01 01:23:58;;;;;;;4.43;4.03;;;10.60;98.70;;;;;;6221279;23;20032;-88
2021/12/01 01:26:41;;;;;;;;;;;;;;;;;;;;;
2021/12/01 01:29:20;;;;;;;;;;;;;;;;;;;;;
2021/12/01 01:32:19;;;;;;;;;;;;;;;;;;;;;
2021/12/01 01:35:18;;;;;;;5.20;4.38;;;10.50;98.70;;;;;;6248210;23;20087;-88
2021/12/01 01:38:06;;;;;;;4.07;3.67;;;10.50;98.70;;;;;;6226355;23;20008;-88
2021/12/01 01:41:13;;;;;;;;;;;;;;;;;;;;;
2021/12/01 01:43:35;;;;;;;3.80;3.42;;;10.60;98.70;;;;;;6219961;23;20012;-88
2021/12/01 01:46:26;;;;;;;4.40;3.60;;;10.60;98.70;;;;;;6220965;23;20062;-88
2021/12/01 01:49:52;;;;;;;3.45;3.15;;;10.50;98.70;;;;;;6221577;23;20007;-88
2021/12/01 01:52:13;;;;;;;3.85;3.28;;;10.50;98.70;;;;;;6217012;23;20008;-87
2021/12/01 01:54:48;;;;;;;3.70;2.92;;;10.60;98.70;;;;;;6221159;23;20000;-88
2021/12/01 01:57:21;;;;;;;2.95;2.65;;;10.50;98.70;;;;;;6216568;23;20334;-89
2021/12/01 02:00:10;;;;;;;3.05;2.75;;;10.50;98.70;;;;;;6192888;23;20100;-88
2021/12/01 02:02:54;;;;;;;4.88;2.65;;;10.50;98.70;;;;;;6194520;23;20395;-88
2021/12/01 02:05:39;;;;;;;;;;;;;;;;;;;;;
2021/12/01 02:08:39;;;;;;;;;;;;;;;;;;;;;
2021/12/01 02:11:39;;;;;;;;;;;;;;;;;;;;;
2021/12/01 02:14:16;;;;;;;2.55;2.35;;;10.50;98.70;;;;;;6215719;23;20040;-88
2021/12/01 02:17:13;;;;;;;3.58;2.83;;;10.50;98.70;;;;;;6221535;23;20001;-88
2021/12/01 02:20:01;;;;;;;3.33;2.75;;;10.50;98.70;;;;;;6206549;23;20087;-87
2021/12/01 02:22:50;;;;;;;3.42;2.28;;;10.50;98.70;;;;;;6195368;23;20087;-88
2021/12/01 02:25:35;;;;;;;3.00;2.60;;;10.50;98.70;;;;;;6220334;23;20004;-88
2021/12/01 02:28:10;;;;;;;2.50;2.30;;;10.40;98.60;;;;;;6229012;23;20035;-88
2021/12/01 02:31:02;;;;;;;2.38;2.17;;;10.40;98.70;;;;;;6231885;23;20039;-87
2021/12/01 02:36:40;;;;;;;3.85;2.60;;;10.40;98.60;;;;;;6228590;23;20320;-91
2021/12/01 02:39:49;;;;;;;;;;;;;;;;;;;;;
2021/12/01 02:45:32;;;;;;;;;;;10.30;98.60;;;;;;6217628;23;20040;-89
2021/12/01 02:51:31;;;;;;;3.13;2.60;;;10.30;98.60;;;;;;6216809;23;20099;-88
2021/12/01 02:57:02;;;;;;;2.72;2.53;;;10.20;98.90;;;;;;6215112;23;20024;-88
2021/12/01 02:59:49;;;;;;;;;;;;;;;;;;;;;
2021/12/01 03:02:43;;;;;;;;;;;;;;;;;;;;;
2021/12/01 03:05:12;;;;;;;2.60;2.40;;;10.20;98.60;;;;;;6217021;23;20071;-88
2021/12/01 03:07:42;;;;;;;3.10;2.80;;;10.20;98.60;;;;;;6215443;23;20410;-88
2021/12/01 03:10:43;;;;;;;;;;;;;;;;;;;;;
2021/12/01 03:13:17;;;;;;;2.92;2.60;;;10.20;98.50;;;;;;6217426;23;20498;-88
2021/12/01 03:19:17;;;;;;;2.40;2.20;;;10.20;98.40;;;;;;6216836;23;20011;-87
2021/12/01 03:22:12;;;;;;;2.50;2.13;;;10.20;98.40;;;;;;6169120;23;20001;-88
2021/12/01 03:25:01;;;;;;;2.33;2.17;;;10.10;98.40;;;;;;6214709;23;20000;-87
2021/12/01 03:27:29;;;;;;;2.80;2.60;;;10.10;98.60;;;;;;6215755;23;20004;-88
2021/12/01 03:30:22;;;;;;;2.53;2.33;;;10.10;98.40;;;;;;6214897;23;20043;-89
2021/12/01 03:33:27;;;;;;;;;;;;;;;;;;;;;
2021/12/01 03:35:53;;;;;;;1.77;1.67;;;10.00;98.60;;;;;;6208577;23;20004;-88
2021/12/01 03:38:36;;;;;;;2.53;1.95;;;10.00;98.40;;;;;;6215667;23;20008;-87
2021/12/01 03:41:05;;;;;;;2.03;1.83;;;10.00;98.40;;;;;;6190951;23;20377;-88
2021/12/01 03:43:36;;;;;;;3.15;1.90;;;10.00;98.30;;;;;;6215354;23;20060;-88
2021/12/01 03:46:19;;;;;;;1.90;1.80;;;10.00;98.30;;;;;;6191443;23;20039;-87
2021/12/01 03:48:52;;;;;;;1.73;1.63;;;10.00;98.40;;;;;;6216974;23;20232;-87
2021/12/01 03:51:21;;;;;;;1.90;1.75;;;10.00;98.30;;;;;;6216313;23;20084;-88
2021/12/01 03:54:00;;;;;;;;;;;;;;;;;;;;;
2021/12/01 03:56:37;;;;;;;2.40;2.20;;;10.00;98.30;;;;;;6233885;23;20092;-88
2021/12/01 03:59:13;;;;;;;2.22;2.03;;;10.00;98.20;;;;;;6222274;23;20362;-87
2021/12/01 04:01:46;;;;;;;2.20;2.00;;;9.90;98.20;;;;;;6197508;23;20015;-86
2021/12/01 04:04:17;;;;;;;2.47;2.28;;;9.90;98.20;;;;;;6225314;23;20095;-88
2021/12/01 04:06:57;;;;;;;2.45;2.25;;;9.90;98.20;;;;;;6242474;23;19989;-87
2021/12/01 04:09:44;;;;;;;2.40;2.17;;;9.90;98.20;;;;;;6241929;23;20011;-88
2021/12/01 04:12:20;;;;;;;2.10;1.90;;;9.80;98.20;;;;;;6219548;23;20000;-88
2021/12/01 04:15:02;;;;;;;2.88;2.10;;;9.80;98.20;;;;;;6234464;23;20433;-87
2021/12/01 04:17:49;;;;;;;2.88;2.10;;;9.80;98.50;;;;;;6198073;23;20070;-88
2021/12/01 04:20:28;;;;;;;3.05;2.15;;;9.80;98.20;;;;;;6220431;23;20083;-89
2021/12/01 04:23:34;;;;;;;;;;;;;;;;;;;;;
2021/12/01 04:26:12;;;;;;;;;;;;;;;;;;;;;
2021/12/01 04:28:45;;;;;;;3.30;2.80;;;9.80;98.20;;;;;;6246604;23;20412;-87
2021/12/01 04:31:32;;;;;;;;;;;;;;;;;;;;;
2021/12/01 04:34:01;;;;;;;3.75;2.53;;;9.80;98.10;;;;;;6246084;23;20079;-88
2021/12/01 04:36:52;;;;;;;2.80;2.58;;;9.80;97.90;;;;;;6219573;23;20027;-88
2021/12/01 04:39:54;;;;;;;2.83;2.60;;;9.80;97.90;;;;;;6220057;23;19996;-88
2021/12/01 04:42:33;;;;;;;2.67;2.47;;;9.70;97.90;;;;;;6219711;23;20039;-88
2021/12/01 04:45:27;;;;;;;3.15;2.85;;;9.80;98.00;;;;;;6195428;23;20081;-88
2021/12/01 04:48:04;;;;;;;3.22;2.65;;;9.70;97.90;;;;;;6218786;23;20004;-87
2021/12/01 04:50:32;;;;;;;2.85;2.42;;;9.70;97.90;;;;;;6246829;23;20004;-88
2021/12/01 04:53:02;;;;;;;3.55;2.53;;;9.70;97.80;;;;;;6189271;23;20031;-87
2021/12/01 04:55:38;;;;;;;;;;;;;;;;;;;;;
2021/12/01 04:58:22;;;;;;;3.15;2.58;;;9.70;97.80;;;;;;6215758;23;20083;-88
2021/12/01 05:00:52;;;;;;;3.20;2.72;;;9.70;97.80;;;;;;6190353;23;20091;-87
2021/12/01 05:03:30;;;;;;;3.40;3.10;;;9.70;97.70;;;;;;6214794;23;20011;-88
2021/12/01 05:06:23;;;;;;;3.00;2.60;;;9.70;97.70;;;;;;6214453;23;20092;-87
2021/12/01 05:12:34;;;;;;;2.92;2.67;;;9.70;97.70;;;;;;6194977;23;20040;-87
2021/12/01 05:15:25;;;;;;;3.13;2.80;;;9.70;97.70;;;;;;6189687;23;20012;-87
2021/12/01 05:18:16;;;;;;;;;;;;;;;;;;;;;
2021/12/01 05:20:49;;;;;;;2.97;2.40;;;9.60;97.70;;;;;;6193377;23;20076;-88
2021/12/01 05:23:30;;;;;;;2.70;2.17;;;9.60;97.80;;;;;;6190067;23;20030;-88
2021/12/01 05:26:10;;;;;;;;;;;;;;;;;;;;;
2021/12/01 05:29:04;;;;;;;2.88;2.58;;;9.60;97.70;;;;;;6192890;23;20076;-88
2021/12/01 05:32:03;;;;;;;2.80;2.40;;;9.60;97.80;;;;;;6213228;23;20004;-87
2021/12/01 05:34:36;;;;;;;2.50;2.28;;;9.60;97.80;;;;;;6175738;23;20000;-88
2021/12/01 05:37:20;;;;;;;3.42;2.45;;;9.50;97.80;;;;;;6194455;23;20005;-87
2021/12/01 05:39:48;;;;;;;2.50;2.30;;;9.50;97.80;;;;;;6174324;23;20441;-88
2021/12/01 05:42:22;;;;;;;2.45;2.22;;;9.50;98.10;;;;;;6189387;23;20011;-87
2021/12/01 05:44:55;;;;;;;3.67;1.90;;;9.50;97.80;;;;;;6240356;23;20000;-87
2021/12/01 05:47:24;;;;;;;3.17;2.45;;;9.50;97.80;;;;;;6237842;23;20012;-87
2021/12/01 05:50:18;;;;;;;;;;;;;;;;;;;;;
2021/12/01 05:52:47;;;;;;;3.78;1.75;;;9.50;97.90;;;;;;6217974;23;20369;-86
2021/12/01 05:55:13;;;;;;;2.25;2.05;;;9.50;97.90;;;;;;6216822;23;20051;-88
2021/12/01 05:57:53;;;;;;;2.45;1.80;;;9.50;97.80;;;;;;6217818;23;20004;-88
2021/12/01 06:00:22;;;;;;;2.10;1.67;;;9.40;97.80;;;;;;6168491;23;20060;-89
2021/12/01 06:03:02;;;;;;;;;;;;;;;;;;;;;
2021/12/01 06:05:31;;;;;;;2.72;1.70;;;9.40;97.90;;;;;;6217523;23;20076;-88
2021/12/01 06:07:59;;;;;;;2.40;1.77;;;9.40;97.90;;;;;;6215706;23;20005;-87
2021/12/01 06:10:31;;;;;;;1.50;1.40;;;9.40;97.90;;;;;;6217309;23;20015;-87
2021/12/01 06:13:05;;;;;;;3.05;1.50;;;9.40;97.90;;;;;;6215690;23;20028;-86
2021/12/01 06:15:39;;;;;;;2.58;1.70;;;9.30;97.90;;;;;;6166514;23;20000;-87
2021/12/01 06:18:16;;;;;;;1.42;1.30;;;9.30;98.00;;;;;;6215762;23;20008;-88
2021/12/01 06:21:02;;;;;;;1.80;1.48;;;9.30;98.00;;;;;;6216366;23;19997;-88
2021/12/01 06:24:02;;;;;;;1.95;1.20;;;9.30;98.00;;;;;;6216258;23;19997;-91
2021/12/01 06:26:48;;;;;;;2.25;1.20;;;9.30;98.00;;;;;;6191264;23;20009;-88
2021/12/01 06:29:30;;;;;;;2.42;1.42;;;9.30;98.00;;;;;;6216839;23;20005;-88
2021/12/01 06:32:18;;;;;;;2.58;1.33;;;9.30;98.00;;;;;;6168554;23;20012;-87
2021/12/01 06:34:49;;;;;;;1.63;1.10;;;9.30;98.00;;;;;;6212604;23;20004;-88
2021/12/01 06:37:28;;;;;;;;;;;;;;;;;;;;;
2021/12/01 06:40:24;;;;;;;2.00;1.20;;;9.30;98.00;;;;;;6217472;23;20064;-88
2021/12/01 06:43:01;;;;;;;3.58;1.17;;;9.30;97.90;;;;;;6216645;23;20007;-90
2021/12/01 06:48:21;;;;;;;1.35;1.05;;;9.30;97.90;;;;;;6200886;23;20012;-86
2021/12/01 06:50:53;;;;;;;0.95;0.95;;;9.30;97.90;;;;;;6215512;23;20036;-86
2021/12/01 06:53:43;;;;;;;2.33;1.00;;;9.30;98.00;;;;;;6215978;23;20007;-85
2021/12/01 06:56:18;;;;;;;0.90;0.90;;;9.30;98.00;;;;;;6210272;23;20435;-87
2021/12/01 06:58:55;;;;;;;2.75;1.08;;;9.30;98.00;;;;;;6187274;23;20036;-87
2021/12/01 07:02:01;;;;;;;1.58;0.93;;;9.30;98.00;;;;;;6211178;23;20029;-87
2021/12/01 07:04:38;;;;;;;1.35;1.00;;;9.20;98.10;;;;;;6184025;23;20001;-87
2021/12/01 07:07:17;;;;;;;1.08;0.98;;;9.20;98.10;;;;;;6210726;23;20361;-86
2021/12/01 07:10:19;;;;;;;1.15;1.05;;;9.20;98.20;;;;;;6186379;23;20407;-86
2021/12/01 07:13:06;;;;;;;0.88;0.80;;;9.20;98.20;;;;;;6188649;23;20051;-86
2021/12/01 07:15:36;;;;;;;1.80;1.17;;;9.20;98.20;;;;;;6192801;23;20059;-88
2021/12/01 07:18:38;;;;;;;1.27;1.17;;;9.20;98.20;;;;;;6208520;23;20008;-86
2021/12/01 07:21:20;;;;;;;7.43;5.15;;;9.30;98.30;;;;;;6236843;23;20036;-87
2021/12/01 07:23:51;;;;;;;3.58;2.53;;;9.20;98.20;;;;;;6209511;23;20013;-86
2021/12/01 07:26:21;;;;;;;1.63;1.40;;;9.20;98.30;;;;;;6158053;23;20041;-85
2021/12/01 07:28:50;;;;;;;2.03;1.20;;;9.30;98.60;;;;;;6191981;23;20013;-86
2021/12/01 07:34:46;;;;;;;1.48;1.38;;;9.30;98.30;;;;;;6189033;23;20067;-88
2021/12/01 07:37:49;;;;;;;;;;;;;;;;;;;;;
2021/12/01 07:40:20;;;;;;;;;;;;;;;;;;;;;
2021/12/01 07:42:59;;;;;;;1.40;1.30;;;9.30;98.40;;;;;;6187323;23;20092;-87
2021/12/01 07:45:50;;;;;;;1.40;1.30;;;9.30;98.40;;;;;;6211234;23;20009;-86
2021/12/01 07:48:39;;;;;;;1.95;1.10;;;9.30;98.50;;;;;;6201762;23;20013;-88
2021/12/01 07:51:12;;;;;;;2.17;1.20;;;9.30;98.40;;;;;;6185297;23;20104;-87
2021/12/01 07:53:49;;;;;;;1.40;1.25;;;9.30;98.40;;;;;;6162328;23;20423;-87
2021/12/01 07:56:37;;;;;;;2.17;1.98;;;9.30;98.40;;;;;;6185726;23;20151;-87
2021/12/01 08:02:36;;;;;;;2.45;1.95;;;9.40;98.40;;;;;;6174440;23;20052;-88
2021/12/01 08:05:18;;;;;;;2.30;2.10;;;9.40;98.40;;;;;;6211078;23;20005;-88
2021/12/01 08:11:18;;;;;;;4.32;3.30;;;9.40;98.50;;;;;;6185960;23;20514;-87
2021/12/01 08:13:59;;;;;;;;;;;;;;;;;;;;;
2021/12/01 08:16:34;;;;;;;3.50;3.20;;;9.50;98.50;;;;;;6186277;23;20498;-88
2021/12/01 08:19:02;;;;;;;3.72;3.13;;;9.50;98.50;;;;;;6209841;23;20005;-89
2021/12/01 08:21:38;;;;;;;6.72;3.80;;;9.50;98.50;;;;;;6211201;23;20415;-88
2021/12/01 08:24:40;;;;;;;;;;;;;;;;;;;;;
2021/12/01 08:27:37;;;;;;;4.18;3.78;;;9.60;98.50;;;;;;6185786;23;20080;-90
2021/12/01 08:30:36;;;;;;;4.72;4.32;;;9.60;98.40;;;;;;6166573;23;20013;-89
2021/12/01 08:33:13;;;;;;;5.43;4.25;;;9.60;98.40;;;;;;6192590;23;20009;-90
2021/12/01 08:36:15;;;;;;;8.80;6.78;;;9.60;98.40;;;;;;6208188;23;20008;-90
2021/12/01 08:38:52;;;;;;;5.88;5.28;;;9.70;98.50;;;;;;6188225;23;20005;-90
2021/12/01 08:44:28;;;;;;;7.07;5.65;;;9.70;98.50;;;;;;6171439;23;20020;-87
2021/12/01 08:47:10;;;;;;;5.95;5.25;;;9.70;98.40;;;;;;6211738;23;20012;-88
2021/12/01 08:49:49;;;;;;;6.88;5.30;;;9.70;98.50;;;;;;6222298;23;20475;-87
2021/12/01 08:52:41;;;;;;;6.40;5.18;;;9.70;98.40;;;;;;6224173;23;20024;-88
2021/12/01 08:59:07;;;;;;;6.35;5.20;;;9.70;98.40;;;;;;6159697;23;20025;-87
2021/12/01 09:02:13;;;;;;;7.03;5.32;;;9.70;98.40;;;;;;6164995;23;20005;-89
2021/12/01 09:05:17;;;;;;;;;;;;;;;;;;;;;
2021/12/01 09:18:31;;;;;;;6.68;5.30;;;9.80;98.30;;;;;;6083422;23;20011;-90
2021/12/01 09:25:03;;;;;;;3.50;3.20;;;9.80;98.30;;;;;;6003644;23;20008;-89
2021/12/01 09:28:22;;;;;;;;;;;;;;;;;;;;;
2021/12/01 09:41:23;;;;;;;;;;;;;;;;;;;;;
2021/12/01 09:48:32;;;;;;;;;;;;;;;;;;;;;
2021/12/01 10:11:01;;;;;;;;;;;;;;;;;;;;;
2021/12/01 10:13:19;;;;;;;;;;;;;;;;;;;;;
2021/12/01 10:15:52;;;;;;;4.32;1.58;;;9.80;97.60;;;;;;6083279;23;20531;-88
2021/12/01 10:21:30;;;;;;;7.03;1.58;;;9.80;97.60;;;;;;6020992;23;20007;-88
2021/12/01 10:24:23;;;;;;;7.35;1.73;;;9.90;97.60;;;;;;6127521;23;20006;-88
2021/12/01 10:27:21;;;;;;;7.70;1.85;;;9.80;97.50;;;;;;6130038;23;20013;-89
2021/12/01 10:30:17;;;;;;;7.43;1.60;;;9.90;97.50;;;;;;6165634;23;19992;-88
2021/12/01 10:33:08;;;;;;;6.25;1.73;;;9.80;97.40;;;;;;6183127;23;19994;-89
2021/12/01 10:35:41;;;;;;;;;;;9.80;97.30;;;;;;6207421;23;19989;-87
2021/12/01 10:38:35;;;;;;;5.65;1.38;;;9.80;97.20;;;;;;6205716;23;19900;-88
2021/12/01 10:41:21;;;;;;;3.83;1.13;;;9.80;97.10;;;;;;6165215;23;20068;-89
2021/12/01 10:43:53;;;;;;;5.18;1.20;;;9.70;97.00;;;;;;6157791;23;20501;-88
2021/12/01 10:46:50;;;;;;;7.40;1.92;;;9.70;97.00;;;;;;6156702;23;20445;-88
2021/12/01 10:49:48;;;;;;;;;;;;;;;;;;;;;
2021/12/01 10:52:45;;;;;;;;;;;;;;;;;;;;;
2021/12/01 10:55:49;;;;;;;4.72;1.17;;;9.50;96.60;;;;;;6157749;23;20080;-90
2021/12/01 11:02:35;;;;;;;3.67;0.90;;;9.40;96.70;;;;;;6067680;23;20086;-89
2021/12/01 11:13:23;;;;;;;;;;;;;;;;;;;;;
2021/12/01 11:54:16;;;;;;;;;;;;;;;;;;;;;
2021/12/01 12:00:38;;;;;;;;;;;;;;;;;;;;;
2021/12/01 12:03:28;;;;;;;5.07;1.63;;;9.60;96.30;;;;;;6172353;23;20076;-89
2021/12/01 12:06:49;;;;;;;4.40;1.30;;;9.50;96.30;;;;;;6150171;23;19989;-88
2021/12/01 12:10:02;;;;;;;;;;;;;;;;;;;;;
2021/12/01 12:13:08;;;;;;;;;;;;;;;;;;;;;
2021/12/01 12:16:49;;;;;;;;;;;;;;;;;;;;;
2021/12/01 12:20:01;;;;;;;;;;;;;;;;;;;;;
2021/12/01 12:30:03;;;;;;;;;;;;;;;;;;;;;
2021/12/01 12:36:45;;;;;;;;;;;;;;;;;;;;;
2021/12/01 13:26:21;;;;;;;;;;;;;;;;;;;;;
2021/12/01 13:29:41;;;;;;;;;;;;;;;;;;;;;
2021/12/01 13:32:59;;;;;;;5.10;1.23;;;9.70;95.10;;;;;;5866268;24;20081;-91
2021/12/01 13:40:11;;;;;;;;;;;;;;;;;;;;;
2021/12/01 14:47:52;;;;;;;;;;;;;;;;;;;;;
2021/12/01 14:54:52;;;;;;;;;;;;;;;;;;;;;
2021/12/01 15:08:19;;;;;;;;;;;;;;;;;;;;;
2021/12/01 15:11:21;;;;;;;;;;;;;;;;;;;;;
2021/12/01 15:30:59;;;;;;;;;;;;;;;;;;;;;
2021/12/01 15:37:06;;;;;;;4.28;0.98;;;8.80;96.10;;;;;;6035940;23;20006;-89
2021/12/01 15:46:59;;;;;;;;;;;;;;;;;;;;;
2021/12/01 15:50:05;;;;;;;;;;;;;;;;;;;;;
2021/12/01 15:53:07;;;;;;;;;;;;;;;;;;;;;
2021/12/01 16:07:45;;;;;;;;;;;;;;;;;;;;;
2021/12/01 16:16:54;;;;;;;7.80;2.03;;;8.50;95.90;;;;;;5881050;24;20091;-90
2021/12/01 16:27:43;;;;;;;;;;;;;;;;;;;;;
2021/12/01 16:52:53;;;;;;;;;;;;;;;;;;;;;
2021/12/01 17:08:53;;;;;;;11.77;1.85;;;8.00;95.30;;;;;;5973700;23;20023;-87
2021/12/01 17:18:46;;;;;;;;;;;;;;;;;;;;;
2021/12/01 17:46:40;;;;;;;;;;;;;;;;;;;;;
2021/12/01 17:50:20;;;;;;;;;;;;;;;;;;;;;
2021/12/01 18:26:30;;;;;;;11.20;1.92;;;7.20;95.00;;;;;;5822925;24;20018;-89
2021/12/01 18:42:04;;;;;;;9.40;2.08;;;7.10;94.90;;;;;;6104077;23;20013;-90
2021/12/01 18:44:45;;;;;;;10.95;2.67;;;7.10;94.90;;;;;;6068087;23;20078;-88
2021/12/01 18:51:11;;;;;;;;;;;;;;;;;;;;;
2021/12/01 18:54:25;;;;;;;11.68;3.38;;;7.10;94.80;;;;;;6162316;23;20084;-89
2021/12/01 19:00:30;;;;;;;;;;;;;;;;;;;;;
2021/12/01 19:03:16;;;;;;;7.47;2.40;;;7.10;94.70;;;;;;6243839;23;20087;-86
2021/12/01 19:06:04;;;;;;;8.60;1.85;;;7.10;94.70;;;;;;6246270;23;20000;-88
2021/12/01 19:08:53;;;;;;;5.10;1.67;;;7.10;94.50;;;;;;6246276;23;20047;-87
2021/12/01 19:11:44;;;;;;;;;;;;;;;;;;;;;
2021/12/01 19:14:36;;;;;;;6.32;1.77;;;7.00;94.30;;;;;;6222556;23;20379;-88
2021/12/01 19:20:43;;;;;;;8.45;2.03;;;7.00;94.40;;;;;;6246891;23;20039;-88
2021/12/01 19:23:59;;;;;;;6.10;1.90;;;7.10;94.40;;;;;;6218833;23;20426;-89
2021/12/01 19:26:52;;;;;;;9.13;2.15;;;7.10;94.30;;;;;;6239882;23;20004;-88
2021/12/01 19:29:48;;;;;;;;;;;;;;;;;;;;;
2021/12/01 19:33:13;;;;;;;;;;;;;;;;;;;;;
2021/12/01 19:38:52;;;;;;;;;;;7.00;94.30;;;;;;6197385;23;20008;-87
2021/12/01 19:41:48;;;;;;;;;;;;;;;;;;;;;
2021/12/01 19:44:55;;;;;;;;;;;;;;;;;;;;;
2021/12/01 19:47:57;;;;;;;8.85;1.90;;;6.90;94.10;;;;;;6229979;23;20064;-87
2021/12/01 19:57:19;;;;;;;9.05;2.72;;;6.80;94.30;;;;;;6264465;23;20012;-87
2021/12/01 20:00:28;;;;;;;;;;;;;;;;;;;;;
2021/12/01 20:03:22;;;;;;;7.57;2.10;;;6.80;94.50;;;;;;6269147;23;20015;-87
2021/12/01 20:06:08;;;;;;;8.40;1.70;;;6.80;94.50;;;;;;6230201;23;20004;-89
2021/12/01 20:08:52;;;;;;;6.97;1.95;;;6.80;94.50;;;;;;6224485;23;20434;-88
2021/12/01 20:15:02;;;;;;;9.10;1.67;;;6.80;94.40;;;;;;6247179;23;20004;-88
2021/12/01 20:17:57;;;;;;;5.72;1.67;;;6.80;94.50;;;;;;6215829;23;20004;-88
2021/12/01 20:21:12;;;;;;;7.13;1.38;;;6.70;94.40;;;;;;6198902;23;20004;-89
2021/12/01 20:24:09;;;;;;;;;;;;;;;;;;;;;
2021/12/01 20:27:29;;;;;;;;;;;;;;;;;;;;;
2021/12/01 20:30:55;;;;;;;;;;;;;;;;;;;;;
2021/12/01 20:33:39;;;;;;;3.33;1.30;;;6.60;94.30;;;;;;6246945;23;20075;-88
2021/12/01 20:39:44;;;;;;;;;;;;;;;;;;;;;
2021/12/01 20:42:45;;;;;;;8.70;2.20;;;6.50;94.20;;;;;;6240982;23;20098;-89
2021/12/01 20:45:43;;;;;;;8.25;2.03;;;6.40;94.20;;;;;;6228966;23;20004;-87
2021/12/01 20:57:27;;;;;;;;;;;;;;;;;;;;;
2021/12/01 21:00:06;;;;;;;5.13;1.55;;;6.10;94.20;;;;;;6246482;23;20182;-89
2021/12/01 21:03:16;;;;;;;5.38;2.03;;;6.10;94.30;;;;;;6244860;23;20437;-88
2021/12/01 21:09:52;;;;;;;8.65;2.00;;;6.00;94.30;;;;;;6181353;23;20047;-87
2021/12/01 21:20:25;;;;;;;;;;;;;;;;;;;;;
2021/12/01 21:27:23;;;;;;;;;;;;;;;;;;;;;
2021/12/01 21:33:15;;;;;;;;;;;;;;;;;;;;;
2021/12/01 21:43:38;;;;;;;;;;;;;;;;;;;;;
2021/12/01 22:03:32;;;;;;;8.18;3.30;;;5.60;94.60;;;;;;6124117;23;20002;-87
2021/12/01 22:07:11;;;;;;;;;;;;;;;;;;;;;
2021/12/01 22:10:12;;;;;;;;;;;;;;;;;;;;;
2021/12/01 22:13:06;;;;;;;8.93;2.97;;;5.60;94.60;;;;;;6227726;23;20084;-88
2021/12/01 22:16:23;;;;;;;;;;;;;;;;;;;;;
2021/12/01 22:19:22;;;;;;;8.70;2.45;;;5.50;94.60;;;;;;6247614;23;20388;-87
2021/12/01 22:22:25;;;;;;;6.97;2.20;;;5.50;94.70;;;;;;6197421;23;20024;-87
2021/12/01 22:28:50;;;;;;;;;;;;;;;;;;;;;
2021/12/01 22:31:48;;;;;;;10.55;2.60;;;5.50;94.70;;;;;;6154995;23;20088;-88
2021/12/01 22:34:45;;;;;;;8.45;2.28;;;5.50;94.70;;;;;;6155566;23;20066;-88
2021/12/01 22:38:04;;;;;;;5.97;2.28;;;5.50;94.70;;;;;;6246455;23;20382;-87
2021/12/01 22:44:18;;;;;;;11.18;2.88;;;5.50;94.80;;;;;;6219351;23;20006;-87
2021/12/01 22:49:58;;;;;;;7.28;2.67;;;5.40;94.80;;;;;;6215053;23;20016;-88
2021/12/01 22:56:24;;;;;;;;;;;;;;;;;;;;;
2021/12/01 22:59:04;;;;;;;5.90;2.25;;;5.40;94.90;;;;;;6262900;22;20008;-89
2021/12/01 23:01:50;;;;;;;7.20;1.95;;;5.40;94.90;;;;;;6273261;22;20032;-91
2021/12/01 23:04:25;;;;;;;8.00;2.25;;;5.40;94.90;;;;;;6249958;23;20012;-89
2021/12/01 23:07:51;;;;;;;11.27;2.58;;;5.40;95.00;;;;;;6265731;23;20000;-87
2021/12/01 23:10:14;;;;;;;5.32;2.20;;;5.40;95.00;;;;;;6242526;23;20042;-88
2021/12/01 23:13:03;;;;;;;7.18;2.53;;;5.40;95.00;;;;;;6221736;23;20000;-89
2021/12/01 23:16:35;;;;;;;;;;;;;;;;;;;;;
2021/12/01 23:19:18;;;;;;;6.35;2.00;;;5.40;94.90;;;;;;6233882;23;20251;-87
2021/12/01 23:22:12;;;;;;;9.40;2.47;;;5.40;94.90;;;;;;6201863;23;20032;-88
2021/12/01 23:28:19;;;;;;;;;;;;;;;;;;;;;
2021/12/01 23:31:25;;;;;;;8.25;1.75;;;5.40;94.80;;;;;;6246728;23;20083;-87
2021/12/01 23:37:17;;;;;;;12.25;3.17;;;5.40;94.80;;;;;;6230771;23;20332;-88
2021/12/01 23:40:00;;;;;;;6.68;2.42;;;5.40;94.90;;;;;;6220354;23;20015;-88
2021/12/01 23:42:49;;;;;;;5.32;2.03;;;5.40;94.90;;;;;;6174326;23;20070;-88
2021/12/01 23:52:02;;;;;;;7.72;2.38;;;5.40;94.90;;;;;;6202384;23;20299;-88
2021/12/01 23:54:56;;;;;;;11.10;3.00;;;5.40;94.90;;;;;;6197070;23;20058;-88
2021/12/01 23:57:47;;;;;;;;;;;;;;;;;;;;;
